Time;durP1;ratioP1;P1;durP2;ratioP2;P2;SDS_P1;SDS_P2;PMS_P1;PMS_P2;Temp;Humidity;BMP_temperature;BMP_pressure;BME280_temperature;BME280_humidity;BME280_pressure;Samples;Min_cycle;Max_cycle;Signal;HPM_P1;HPM_P2
2022/05/31 00:02:19;;;;;;;10.25;4.55;;;13.80;99.90;;;14.08;65.64;101256.78;4845642;29;20403;-68
2022/05/31 00:04:49;;;;;;;6.07;4.43;;;13.80;99.90;;;14.20;65.63;101265.50;4845981;29;20489;-68
2022/05/31 00:07:18;;;;;;;10.32;4.72;;;13.80;99.90;;;14.13;66.00;101266.47;4845557;29;20073;-68
2022/05/31 00:09:47;;;;;;;6.53;4.45;;;13.70;99.90;;;14.11;67.21;101267.41;4829163;29;20145;-68
2022/05/31 00:12:16;;;;;;;7.60;4.60;;;13.70;99.90;;;14.01;69.51;101269.31;4845537;29;20124;-68
2022/05/31 00:14:46;;;;;;;10.75;4.13;;;13.60;99.90;;;13.95;70.34;101266.72;4845388;29;20046;-68
2022/05/31 00:17:15;;;;;;;10.17;4.90;;;13.50;99.90;;;13.86;70.54;101265.94;4845398;29;20084;-68
2022/05/31 00:19:43;;;;;;;5.90;4.40;;;13.40;99.90;;;13.75;70.98;101262.50;4845336;29;20711;-68
2022/05/31 00:22:15;;;;;;;8.93;4.85;;;13.30;99.90;;;13.66;71.71;101262.59;4845258;29;20124;-68
2022/05/31 00:24:43;;;;;;;4.25;3.90;;;13.20;99.90;;;13.52;71.84;101260.97;4845394;29;20081;-68
2022/05/31 00:27:15;;;;;;;4.18;3.88;;;13.10;99.90;;;13.46;72.45;101255.72;4845417;29;20058;-68
2022/05/31 00:29:47;;;;;;;5.90;4.68;;;13.00;99.90;;;13.27;72.22;101250.59;4845530;29;20049;-68
2022/05/31 00:32:20;;;;;;;5.60;4.40;;;12.90;99.90;;;13.19;72.55;101245.34;4845550;29;20041;-68
2022/05/31 00:34:51;;;;;;;5.10;4.60;;;12.80;99.90;;;13.20;73.12;101249.75;4845256;29;20445;-68
2022/05/31 00:37:20;;;;;;;5.10;4.55;;;12.80;99.90;;;12.96;72.62;101214.53;4845343;29;20114;-68
2022/05/31 00:39:49;;;;;;;5.47;4.82;;;12.80;99.90;;;13.06;72.21;101245.47;4845359;29;20049;-68
2022/05/31 00:42:21;;;;;;;5.57;4.95;;;12.80;99.90;;;13.03;72.01;101243.72;4828711;29;20381;-68
2022/05/31 00:44:51;;;;;;;8.02;5.10;;;12.70;99.90;;;13.04;71.90;101245.50;4845288;29;20449;-68
2022/05/31 00:47:25;;;;;;;8.93;5.43;;;12.70;99.90;;;13.01;72.09;101248.13;4845640;29;20054;-68
2022/05/31 00:49:59;;;;;;;12.32;5.65;;;12.60;99.90;;;13.08;72.04;101247.25;4843628;29;20315;-68
2022/05/31 00:52:32;;;;;;;8.02;5.65;;;12.70;99.90;;;12.98;72.15;101229.56;4828578;29;20074;-68
2022/05/31 00:55:08;;;;;;;8.60;5.00;;;12.70;99.90;;;13.21;71.90;101250.66;4845025;29;20101;-68
2022/05/31 00:57:39;;;;;;;10.00;5.35;;;12.80;99.90;;;12.79;71.40;101166.03;4844887;29;20054;-68
2022/05/31 01:00:15;;;;;;;6.57;5.10;;;12.90;99.90;;;13.32;71.54;101236.38;4828577;29;20049;-68
2022/05/31 01:02:46;;;;;;;6.82;5.72;;;13.00;99.90;;;13.30;71.48;101246.13;4844899;29;20129;-68
2022/05/31 01:05:16;;;;;;;6.30;5.45;;;13.00;99.90;;;13.20;71.34;101219.69;4843720;29;20081;-68
2022/05/31 01:07:46;;;;;;;8.70;5.80;;;13.00;99.90;;;13.39;71.13;101250.50;4828502;29;20531;-68
2022/05/31 01:10:16;;;;;;;9.63;5.65;;;13.00;99.90;;;13.28;70.73;101228.44;4827975;29;20145;-68
2022/05/31 01:13:04;;;;;;;7.15;5.63;;;13.00;99.90;;;13.38;71.30;101241.63;4844538;29;20057;-68
2022/05/31 01:16:13;;;;;;;8.07;5.82;;;13.00;99.90;;;13.54;71.87;101245.91;4823914;29;20087;-68
2022/05/31 01:19:02;;;;;;;6.72;5.82;;;13.10;99.90;;;13.80;71.74;101242.06;4815407;29;20114;-68
2022/05/31 01:21:54;;;;;;;7.90;5.28;;;13.30;99.90;;;13.35;72.15;101185.88;4843785;29;20046;-68
2022/05/31 01:24:31;;;;;;;10.63;6.72;;;13.30;99.90;;;13.68;71.65;101243.09;4827899;29;20137;-68
2022/05/31 01:27:09;;;;;;;14.00;6.90;;;13.30;99.90;;;13.66;70.80;101236.03;4827583;29;20092;-68
2022/05/31 01:29:40;;;;;;;8.32;6.60;;;13.30;99.90;;;13.70;70.58;101243.97;4844454;29;20049;-68
2022/05/31 01:32:11;;;;;;;13.30;7.15;;;13.30;99.90;;;13.73;69.96;101240.34;4844104;29;20504;-68
2022/05/31 01:34:47;;;;;;;14.25;7.88;;;13.40;99.90;;;13.76;69.08;101241.22;4843919;29;20076;-68
2022/05/31 01:37:17;;;;;;;12.82;7.55;;;13.40;99.90;;;13.81;69.00;101243.81;4844028;29;20532;-68
2022/05/31 01:39:49;;;;;;;10.18;6.95;;;13.40;99.90;;;13.64;69.26;101219.22;4842934;29;20114;-68
2022/05/31 01:42:23;;;;;;;11.43;7.80;;;13.40;99.90;;;13.81;69.05;101246.47;4842910;29;20061;-68
2022/05/31 01:44:55;;;;;;;14.07;8.38;;;13.50;99.90;;;13.72;68.84;101220.00;4844091;29;20049;-68
2022/05/31 01:47:23;;;;;;;11.95;7.60;;;13.50;99.90;;;13.70;68.50;101211.16;4843808;29;20463;-68
2022/05/31 01:49:55;;;;;;;11.80;8.10;;;13.50;99.90;;;13.88;68.39;101234.91;4844053;29;20058;-68
2022/05/31 01:52:26;;;;;;;12.90;8.57;;;13.50;99.90;;;13.94;68.50;101242.75;4842432;29;20088;-68
2022/05/31 01:54:55;;;;;;;11.85;8.35;;;13.50;99.90;;;13.94;68.37;101232.13;4827050;29;20054;-68
2022/05/31 01:57:25;;;;;;;11.60;8.45;;;13.50;99.90;;;14.00;68.67;101245.34;4842508;29;20492;-68
2022/05/31 02:00:01;;;;;;;16.42;9.57;;;13.60;99.90;;;14.02;68.57;101227.59;4806256;29;20494;-68
2022/05/31 02:02:31;;;;;;;12.35;8.75;;;13.70;99.90;;;13.95;68.52;101228.59;4806085;29;20054;-68
2022/05/31 02:05:00;;;;;;;13.00;9.73;;;13.60;99.90;;;13.85;68.75;101205.66;4806557;29;20570;-68
2022/05/31 02:07:30;;;;;;;13.07;9.05;;;13.60;99.90;;;13.82;69.02;101198.59;4805986;29;20471;-68
2022/05/31 02:10:00;;;;;;;12.55;8.80;;;13.60;99.90;;;14.04;68.36;101229.34;4806263;29;20051;-68
2022/05/31 02:12:40;;;;;;;12.48;9.20;;;13.70;99.90;;;13.94;68.61;101222.38;4806105;29;20062;-68
2022/05/31 02:15:29;;;;;;;17.75;9.77;;;13.70;99.90;;;13.96;68.82;101222.34;4821051;29;20150;-68
2022/05/31 02:18:18;;;;;;;12.55;9.55;;;13.60;99.90;;;13.96;68.90;101222.34;4778606;29;20058;-68
2022/05/31 02:21:12;;;;;;;17.75;10.50;;;13.70;99.90;;;13.85;68.97;101206.53;4806297;29;20047;-68
2022/05/31 02:23:42;;;;;;;14.27;10.23;;;13.70;99.90;;;13.88;69.16;101216.28;4806834;29;20090;-68
2022/05/31 02:26:10;;;;;;;18.53;10.73;;;13.60;99.90;;;13.73;69.12;101189.84;4806758;29;20091;-68
2022/05/31 02:28:39;;;;;;;12.35;10.55;;;13.60;99.90;;;13.83;69.21;101212.78;4805544;29;20284;-68
2022/05/31 02:31:07;;;;;;;17.42;10.68;;;13.60;99.90;;;13.94;69.38;101226.81;4806564;29;20046;-68
2022/05/31 02:33:36;;;;;;;15.20;11.77;;;13.60;99.90;;;13.82;69.76;101224.31;4806799;29;20468;-68
2022/05/31 02:36:04;;;;;;;13.57;11.63;;;13.50;99.90;;;13.68;70.27;101221.81;4806806;29;20051;-68
2022/05/31 02:38:33;;;;;;;16.90;11.85;;;13.40;99.90;;;13.45;70.92;101222.06;4805382;29;20064;-68
2022/05/31 02:41:03;;;;;;;15.63;11.52;;;13.20;99.90;;;13.32;71.52;101223.09;4805119;29;20154;-68
2022/05/31 02:43:32;;;;;;;17.15;12.48;;;13.10;99.90;;;12.93;73.01;101206.63;4805221;29;20051;-68
2022/05/31 02:46:03;;;;;;;20.90;14.13;;;12.80;99.90;;;13.00;73.13;101209.19;4805254;29;20054;-68
2022/05/31 02:48:32;;;;;;;20.15;12.65;;;12.70;99.90;;;13.10;73.14;101215.34;4805315;29;20127;-68
2022/05/31 02:51:00;;;;;;;15.85;13.60;;;12.70;99.90;;;13.15;73.30;101214.41;4806623;29;20054;-68
2022/05/31 02:53:29;;;;;;;16.75;13.02;;;12.80;99.90;;;13.14;73.40;101212.63;4805139;29;20471;-68
2022/05/31 02:55:58;;;;;;;17.77;13.73;;;12.80;99.90;;;13.08;73.24;101194.13;4805218;29;20518;-68
2022/05/31 02:58:46;;;;;;;18.95;13.52;;;12.90;99.90;;;13.33;73.32;101218.66;4826294;29;20511;-68
2022/05/31 03:01:38;;;;;;;15.95;12.90;;;12.90;99.90;;;12.42;73.07;101072.59;4822997;29;20057;-68
2022/05/31 03:04:27;;;;;;;18.00;13.30;;;13.00;99.90;;;13.37;73.03;101213.31;4822788;29;20110;-68
2022/05/31 03:07:21;;;;;;;16.38;13.38;;;13.00;99.90;;;13.44;72.80;101217.66;4840194;29;20066;-68
2022/05/31 03:10:09;;;;;;;16.67;13.38;;;13.10;99.90;;;13.38;72.58;101206.19;4826013;29;20090;-68
2022/05/31 03:12:38;;;;;;;16.75;13.07;;;13.10;99.90;;;13.45;72.14;101184.84;4841570;29;20053;-68
2022/05/31 03:15:14;;;;;;;17.23;13.07;;;13.20;99.90;;;13.49;72.20;101183.06;4826301;29;20053;-68
2022/05/31 03:17:48;;;;;;;18.17;13.02;;;13.30;99.90;;;13.70;72.09;101214.72;4841334;29;20413;-68
2022/05/31 03:20:22;;;;;;;15.10;12.35;;;13.30;99.90;;;13.72;72.14;101207.59;4842720;29;20132;-68
2022/05/31 03:22:55;;;;;;;16.23;12.90;;;13.40;99.90;;;13.83;71.74;101207.47;4826230;29;20089;-68
2022/05/31 03:25:27;;;;;;;18.45;13.45;;;13.50;99.90;;;13.52;71.67;101159.97;4841101;29;20046;-67
2022/05/31 03:27:59;;;;;;;21.48;14.05;;;13.50;99.90;;;13.85;71.31;101203.88;4842402;29;20049;-68
2022/05/31 03:30:30;;;;;;;16.70;13.13;;;13.50;99.90;;;13.85;71.20;101203.00;4841003;29;20046;-68
2022/05/31 03:32:59;;;;;;;15.60;12.70;;;13.50;99.90;;;13.86;71.45;101202.97;4842375;29;20107;-67
2022/05/31 03:35:27;;;;;;;18.83;12.65;;;13.50;99.90;;;13.84;71.40;101187.97;4842330;29;20124;-68
2022/05/31 03:37:59;;;;;;;17.90;13.45;;;13.60;99.90;;;13.86;71.53;101207.44;4826113;29;20057;-68
2022/05/31 03:40:58;;;;;;;17.27;12.90;;;13.50;99.90;;;13.83;71.49;101191.50;4825928;29;20058;-68
2022/05/31 03:43:35;;;;;;;14.15;12.65;;;13.60;99.90;;;13.75;71.23;101172.09;4840876;29;20504;-68
2022/05/31 03:46:26;;;;;;;19.52;13.38;;;13.50;99.90;;;13.87;71.33;101188.78;4831753;29;20064;-68
2022/05/31 03:48:59;;;;;;;15.23;13.63;;;13.60;99.90;;;13.95;71.58;101199.34;4842249;29;20054;-67
2022/05/31 03:51:38;;;;;;;15.70;13.40;;;13.60;99.90;;;13.87;71.63;101182.59;4840914;29;20466;-68
2022/05/31 03:54:20;;;;;;;14.55;12.82;;;13.60;99.90;;;13.97;71.59;101193.09;4840985;29;20053;-68
2022/05/31 03:57:22;;;;;;;17.20;13.13;;;13.70;99.90;;;14.07;71.23;101197.38;4835964;29;20058;-67
2022/05/31 04:00:13;;;;;;;15.52;12.70;;;13.70;99.90;;;13.94;71.38;101193.13;4825681;29;20061;-68
2022/05/31 04:02:47;;;;;;;14.23;12.25;;;13.60;99.90;;;13.76;71.19;101190.72;4842322;29;20110;-68
2022/05/31 04:05:17;;;;;;;18.20;13.82;;;13.60;99.90;;;13.99;71.45;101190.41;4825651;29;20077;-68
2022/05/31 04:07:46;;;;;;;16.58;12.80;;;13.70;99.90;;;13.84;71.17;101158.72;4840705;29;20485;-65
2022/05/31 04:10:14;;;;;;;17.02;13.20;;;13.60;99.90;;;14.01;71.36;101191.28;4825610;29;20437;-65
2022/05/31 04:12:43;;;;;;;18.05;13.15;;;13.70;99.90;;;13.98;71.28;101185.97;4841073;29;20068;-68
2022/05/31 04:15:14;;;;;;;16.90;12.88;;;13.70;99.90;;;14.03;71.43;101185.00;4841788;29;20076;-68
2022/05/31 04:17:42;;;;;;;20.60;13.27;;;13.70;99.90;;;14.00;71.27;101182.41;4840685;29;20111;-67
2022/05/31 04:20:13;;;;;;;16.13;13.05;;;13.70;99.90;;;14.03;71.34;101184.16;4840984;29;20449;-68
2022/05/31 04:22:41;;;;;;;16.65;13.07;;;13.70;99.90;;;13.84;71.48;101153.41;4840957;29;20568;-67
2022/05/31 04:25:39;;;;;;;16.08;13.75;;;13.70;99.90;;;14.05;71.43;101188.53;4836804;29;20433;-68
2022/05/31 04:28:27;;;;;;;18.92;13.60;;;13.80;99.90;;;14.09;71.24;101189.41;4841546;29;20096;-68
2022/05/31 04:31:15;;;;;;;18.45;13.63;;;13.80;99.90;;;14.12;71.13;101189.34;4841488;29;20057;-68
2022/05/31 04:34:04;;;;;;;18.35;13.90;;;13.80;99.90;;;14.19;70.84;101193.66;4841898;29;20061;-68
2022/05/31 04:36:34;;;;;;;17.88;13.32;;;13.80;99.90;;;14.02;71.07;101162.00;4825423;29;20106;-68
2022/05/31 04:39:04;;;;;;;16.13;13.40;;;13.80;99.90;;;14.17;70.97;101182.16;4840435;29;20145;-69
2022/05/31 04:41:34;;;;;;;14.80;13.13;;;13.80;99.90;;;14.13;70.96;101186.66;4825348;29;20480;-68
2022/05/31 04:44:09;;;;;;;16.08;13.48;;;13.80;99.90;;;14.10;70.93;101164.53;4826012;29;20058;-68
2022/05/31 04:46:42;;;;;;;22.05;14.18;;;13.80;99.90;;;14.20;70.75;101182.13;4828653;29;20050;-69
2022/05/31 04:49:17;;;;;;;16.45;12.63;;;13.80;99.90;;;13.88;70.77;101150.66;4828382;29;20058;-68
2022/05/31 04:51:47;;;;;;;15.43;12.55;;;13.80;99.90;;;14.07;70.63;101177.91;4844844;29;20096;-69
2022/05/31 04:54:23;;;;;;;16.45;13.65;;;13.80;99.90;;;13.33;70.76;101048.63;4828103;29;20405;-68
2022/05/31 04:57:04;;;;;;;18.80;13.68;;;13.70;99.90;;;13.98;70.88;101170.03;4844098;29;20054;-68
2022/05/31 04:59:34;;;;;;;17.70;14.25;;;13.70;99.90;;;13.83;71.61;101175.53;4843656;29;20134;-68
2022/05/31 05:02:02;;;;;;;15.13;13.30;;;13.60;99.90;;;13.93;71.50;101171.88;4828576;29;20393;-68
2022/05/31 05:04:57;;;;;;;16.73;13.48;;;13.60;99.90;;;13.80;71.72;101170.28;4843595;29;20054;-68
2022/05/31 05:07:42;;;;;;;19.30;14.45;;;13.60;99.90;;;13.81;72.02;101174.69;4828298;29;20049;-68
2022/05/31 05:10:13;;;;;;;18.50;13.85;;;13.50;99.90;;;11.88;72.10;100850.38;4827950;29;20465;-68
2022/05/31 05:13:11;;;;;;;17.58;14.15;;;13.40;99.90;;;13.81;72.56;101177.34;4835778;29;20065;-68
2022/05/31 05:16:00;;;;;;;15.95;14.25;;;13.40;99.90;;;13.84;72.60;101153.41;4844632;29;20064;-68
2022/05/31 05:18:34;;;;;;;18.58;13.85;;;13.50;99.90;;;14.01;72.65;101170.00;4828009;29;20408;-68
2022/05/31 05:21:06;;;;;;;17.88;14.05;;;13.60;99.90;;;14.02;72.51;101167.31;4843192;29;20110;-68
2022/05/31 05:23:38;;;;;;;16.90;14.23;;;13.70;99.90;;;13.92;72.36;101140.84;4827758;29;20049;-68
2022/05/31 05:26:12;;;;;;;16.13;13.65;;;13.70;99.90;;;14.10;72.02;101173.41;4843428;29;20046;-68
2022/05/31 05:31:42;;;;;;;17.08;13.80;;;13.80;99.90;;;14.10;71.76;101168.09;4843012;29;20110;-68
2022/05/31 05:34:29;;;;;;;17.23;14.18;;;13.80;99.90;;;14.10;71.81;101164.53;4843997;29;20049;-68
2022/05/31 05:37:05;;;;;;;16.77;14.52;;;13.80;99.90;;;14.03;72.48;101168.19;4843224;29;20390;-68
2022/05/31 05:39:35;;;;;;;17.60;14.50;;;13.70;99.90;;;14.02;72.42;101164.66;4827679;29;20058;-68
2022/05/31 05:42:32;;;;;;;19.42;14.82;;;13.70;99.90;;;14.17;72.62;101160.88;4842898;29;20054;-69
2022/05/31 05:45:19;;;;;;;17.73;14.43;;;13.80;99.90;;;14.26;72.99;101166.09;4843905;29;20065;-69
2022/05/31 05:47:47;;;;;;;19.48;15.43;;;13.90;99.90;;;14.51;72.68;101166.63;4827443;29;20058;-68
2022/05/31 05:50:16;;;;;;;17.52;15.05;;;14.10;99.90;;;14.49;72.76;101177.31;4827327;29;20046;-68
2022/05/31 05:53:07;;;;;;;24.30;15.32;;;14.20;99.90;;;14.57;73.08;101172.75;4843779;29;20110;-69
2022/05/31 05:55:56;;;;;;;16.45;14.38;;;14.20;99.90;;;14.48;72.14;101169.34;4842393;29;20149;-69
2022/05/31 05:58:44;;;;;;;18.05;14.75;;;14.20;99.90;;;14.62;73.30;101186.84;4843663;29;20057;-68
2022/05/31 06:01:35;;;;;;;16.45;13.80;;;14.30;99.90;;;14.85;71.71;101168.72;4843408;29;20179;-69
2022/05/31 06:04:49;;;;;;;19.60;13.02;;;14.50;99.90;;;14.99;70.59;101176.47;4842376;29;20128;-68
2022/05/31 06:07:22;;;;;;;18.38;13.63;;;14.70;99.90;;;15.05;70.68;101177.25;4827032;29;20106;-68
2022/05/31 06:09:55;;;;;;;17.60;14.23;;;14.70;99.90;;;15.02;70.58;101152.44;4843469;29;20149;-68
2022/05/31 06:12:32;;;;;;;20.23;13.70;;;14.80;99.90;;;15.08;69.74;101171.84;4843540;29;20145;-68
2022/05/31 06:15:09;;;;;;;18.52;13.80;;;14.80;99.90;;;15.27;70.03;101175.94;4827088;29;20096;-69
2022/05/31 06:17:43;;;;;;;16.48;13.60;;;14.80;99.90;;;15.46;70.01;101178.28;4827094;29;20050;-68
2022/05/31 06:20:12;;;;;;;15.85;13.60;;;15.10;99.90;;;14.86;69.32;101159.81;4841801;29;20137;-68
2022/05/31 06:22:42;;;;;;;21.95;13.93;;;14.80;99.90;;;14.89;70.42;101174.84;4826646;29;20568;-68
2022/05/31 06:25:20;;;;;;;15.73;13.95;;;14.50;99.90;;;15.03;71.22;101175.50;4826829;29;20053;-68
2022/05/31 06:27:56;;;;;;;19.00;13.52;;;14.60;99.90;;;15.16;69.00;101169.94;4843435;29;20057;-68
2022/05/31 06:30:25;;;;;;;15.93;12.93;;;14.70;99.90;;;15.00;69.93;101171.09;4842043;29;20057;-68
2022/05/31 06:32:54;;;;;;;19.00;13.75;;;14.60;99.90;;;15.05;71.65;101169.25;4826824;29;20086;-68
2022/05/31 06:35:22;;;;;;;15.75;13.43;;;14.60;99.90;;;15.17;70.77;101171.69;4826726;29;20125;-68
2022/05/31 06:38:00;;;;;;;16.58;13.88;;;14.70;99.90;;;15.35;70.47;101165.13;4841921;29;20066;-68
2022/05/31 06:40:28;;;;;;;20.17;13.65;;;14.80;99.90;;;15.42;70.03;101164.16;4843087;29;20056;-69
2022/05/31 06:43:11;;;;;;;18.33;13.20;;;15.00;99.90;;;15.73;69.33;101165.28;4843034;29;20481;-68
2022/05/31 06:46:05;;;;;;;18.42;12.98;;;15.30;99.90;;;15.30;67.69;101077.28;4843000;29;20069;-69
2022/05/31 06:48:53;;;;;;;15.27;12.73;;;15.50;99.90;;;16.03;67.55;101169.06;4842830;29;20138;-68
2022/05/31 06:57:35;;;;;;;18.48;13.98;;;15.70;99.90;;;16.27;67.07;101172.09;4842536;29;20182;-70
2022/05/31 07:00:18;;;;;;;16.58;12.95;;;15.80;99.90;;;16.51;65.43;101165.31;4826724;29;20050;-70
2022/05/31 07:02:48;;;;;;;16.80;12.98;;;16.10;99.90;;;16.52;64.13;101167.09;4826415;29;20076;-70
2022/05/31 07:05:19;;;;;;;20.08;12.88;;;16.10;99.90;;;16.71;63.34;101168.38;4841444;29;20132;-70
2022/05/31 07:07:47;;;;;;;16.30;12.32;;;16.30;99.90;;;16.84;62.74;101167.16;4840945;29;20054;-69
2022/05/31 07:10:34;;;;;;;13.73;11.80;;;16.50;99.90;;;17.12;62.42;101159.31;4842493;29;20102;-69
2022/05/31 07:13:18;;;;;;;18.33;11.68;;;16.70;99.90;;;17.10;61.91;101172.72;4842662;29;20484;-69
2022/05/31 07:16:06;;;;;;;17.10;12.50;;;16.70;99.90;;;17.35;62.17;101172.06;4842666;29;20528;-71
2022/05/31 07:19:17;;;;;;;16.83;11.93;;;17.00;99.90;;;17.50;61.61;101151.16;4821992;29;20173;-70
2022/05/31 07:21:47;;;;;;;13.23;10.80;;;17.20;99.90;;;17.85;61.54;101163.50;4822741;29;20078;-70
2022/05/31 07:24:16;;;;;;;13.68;12.13;;;17.50;99.90;;;17.95;60.42;101154.28;4826165;29;20107;-70
2022/05/31 07:27:09;;;;;;;13.57;10.90;;;17.70;99.90;;;17.58;59.87;101149.13;4841190;29;20077;-71
2022/05/31 07:29:39;;;;;;;15.10;10.02;;;17.50;99.90;;;17.71;58.78;101155.88;4841206;29;20149;-70
2022/05/31 07:32:10;;;;;;;13.20;8.95;;;17.30;99.90;;;17.36;55.31;101163.13;4826083;29;20058;-70
2022/05/31 07:34:58;;;;;;;14.05;9.02;;;17.10;99.90;;;17.31;54.49;101159.69;4841961;29;20137;-68
2022/05/31 07:37:29;;;;;;;12.17;9.13;;;16.90;99.90;;;17.15;54.95;101165.47;4826134;29;20496;-69
2022/05/31 07:39:57;;;;;;;11.85;8.70;;;16.80;99.90;;;17.29;54.69;101172.22;4840992;29;20653;-69
2022/05/31 07:42:26;;;;;;;12.52;8.77;;;16.80;99.90;;;17.34;54.94;101156.94;4841035;29;20054;-71
2022/05/31 07:44:55;;;;;;;12.73;8.85;;;16.90;99.90;;;17.70;54.87;101156.81;4825805;29;20042;-71
2022/05/31 07:47:26;;;;;;;10.95;8.27;;;17.30;99.90;;;17.65;52.18;101141.81;4825895;29;20083;-70
2022/05/31 07:49:56;;;;;;;14.15;8.52;;;17.30;99.90;;;17.94;52.21;101156.09;4826178;29;20154;-71
2022/05/31 07:52:45;;;;;;;11.10;8.38;;;17.60;99.90;;;18.29;53.88;101159.50;4825815;29;20066;-70
2022/05/31 07:55:55;;;;;;;12.23;8.18;;;17.80;99.90;;;18.17;50.60;101142.00;4841782;29;20049;-70
2022/05/31 07:58:46;;;;;;;10.18;7.65;;;18.00;99.90;;;18.18;51.24;101124.13;4831280;29;20058;-70
2022/05/31 08:01:36;;;;;;;10.95;7.70;;;17.90;99.90;;;18.85;51.67;101156.75;4840643;29;20525;-70
2022/05/31 08:04:16;;;;;;;13.20;7.80;;;18.40;99.90;;;19.09;49.45;101156.84;4840786;29;20073;-70
2022/05/31 08:06:48;;;;;;;10.70;7.97;;;18.70;99.90;;;19.25;48.79;101155.38;4841916;29;20495;-75
2022/05/31 08:09:16;;;;;;;14.95;7.80;;;18.90;99.90;;;19.46;47.90;101154.66;4841693;29;20062;-70
2022/05/31 08:11:45;;;;;;;9.98;7.15;;;19.10;99.90;;;18.14;46.04;101117.16;4841496;29;20129;-70
2022/05/31 08:14:13;;;;;;;10.93;7.60;;;18.40;99.90;;;18.04;49.10;101144.19;4842099;29;20125;-70
2022/05/31 08:16:44;;;;;;;14.77;7.18;;;17.80;99.90;;;18.27;48.68;101150.63;4841673;29;20053;-70
2022/05/31 08:19:12;;;;;;;13.10;7.82;;;17.80;99.90;;;18.77;48.98;101156.16;4843010;29;20153;-70
2022/05/31 08:21:42;;;;;;;13.70;8.00;;;18.20;99.90;;;18.12;46.68;101079.69;4845388;29;20064;-70
2022/05/31 08:24:11;;;;;;;11.00;7.07;;;18.20;99.90;;;18.95;47.62;101146.59;4845440;29;20465;-70
2022/05/31 08:27:00;;;;;;;8.65;5.80;;;18.50;99.90;;;18.74;43.64;101148.19;4845245;29;20054;-70
2022/05/31 08:29:30;;;;;;;9.90;5.25;;;18.50;99.90;;;18.67;44.03;101152.03;4845223;29;20077;-70
2022/05/31 08:31:59;;;;;;;7.43;5.85;;;18.30;99.90;;;19.08;42.89;101155.97;4845019;29;20469;-70
2022/05/31 08:34:29;;;;;;;9.13;5.75;;;18.60;99.90;;;19.24;43.86;101156.31;4844730;29;20082;-70
2022/05/31 08:37:00;;;;;;;6.22;5.22;;;18.90;99.90;;;18.68;43.53;101142.16;4845088;29;20458;-70
2022/05/31 08:39:29;;;;;;;10.65;6.00;;;18.40;99.90;;;18.12;42.10;101125.19;4845118;29;20457;-70
2022/05/31 08:42:06;;;;;;;23.10;6.45;;;18.10;99.90;;;18.23;43.22;101149.88;4844715;29;20128;-70
2022/05/31 08:44:45;;;;;;;12.77;6.45;;;17.80;99.90;;;18.74;44.67;101148.19;4844627;29;20049;-70
2022/05/31 08:47:22;;;;;;;7.65;5.05;;;18.20;99.90;;;19.14;41.77;101144.16;4844571;29;20054;-71
2022/05/31 08:53:18;;;;;;;14.38;5.70;;;18.90;99.90;;;19.73;43.93;101149.16;4844916;29;20073;-70
2022/05/31 08:58:48;;;;;;;6.30;5.35;;;19.70;99.90;;;20.15;40.60;101145.75;4828167;29;20500;-70
2022/05/31 09:01:23;;;;;;;47.70;11.93;;;19.80;99.90;;;20.46;42.72;101149.00;4845240;29;20438;-70
2022/05/31 09:03:58;;;;;;;14.05;6.45;;;20.10;99.90;;;19.82;40.89;101125.56;4844677;29;20058;-70
2022/05/31 09:06:33;;;;;;;8.00;5.88;;;19.70;99.90;;;19.82;41.22;101133.63;4844604;29;20114;-70
2022/05/31 09:09:11;;;;;;;9.73;5.88;;;19.50;99.90;;;20.28;41.96;101136.31;4844625;29;20106;-68
2022/05/31 09:12:01;;;;;;;8.70;4.80;;;19.90;99.90;;;20.46;40.18;101143.63;4844725;29;20066;-70
2022/05/31 09:14:45;;;;;;;7.93;5.00;;;20.20;99.90;;;20.44;40.96;101110.56;4844232;29;20450;-69
2022/05/31 09:17:22;;;;;;;12.60;5.38;;;20.20;99.90;;;20.27;38.66;101116.59;4844629;29;20049;-69
2022/05/31 09:19:59;;;;;;;7.82;4.70;;;20.20;99.90;;;20.42;40.72;101139.31;4844657;29;20041;-69
2022/05/31 09:22:28;;;;;;;7.28;4.55;;;20.20;99.90;;;20.30;40.83;101151.44;4844172;29;20074;-68
2022/05/31 09:24:58;;;;;;;7.45;4.25;;;20.10;99.90;;;20.42;39.06;101129.41;4844134;29;20046;-69
2022/05/31 09:27:38;;;;;;;7.35;4.88;;;20.20;99.90;;;20.52;38.70;101132.59;4844151;29;20469;-68
2022/05/31 09:30:13;;;;;;;7.03;3.85;;;20.20;99.90;;;20.61;37.83;101140.31;4844054;29;20049;-69
2022/05/31 09:32:57;;;;;;;7.47;4.10;;;20.30;99.90;;;20.79;37.48;101139.53;4843962;29;20125;-69
2022/05/31 09:35:59;;;;;;;6.63;4.32;;;20.50;99.90;;;20.93;38.36;101139.81;4844731;29;20086;-69
2022/05/31 09:39:03;;;;;;;5.70;4.20;;;20.60;99.90;;;20.97;36.91;101140.56;4843695;29;20058;-68
2022/05/31 09:41:41;;;;;;;9.90;4.25;;;20.70;99.90;;;20.95;36.50;101137.06;4844283;29;20094;-69
2022/05/31 09:44:17;;;;;;;8.65;4.45;;;20.60;99.90;;;20.93;36.20;101141.63;4843825;29;20042;-68
2022/05/31 09:46:52;;;;;;;7.18;4.53;;;20.60;99.90;;;20.91;37.25;101132.75;4843932;29;20049;-69
2022/05/31 09:49:33;;;;;;;8.68;4.38;;;20.60;99.90;;;20.77;39.69;101121.72;4843796;29;20057;-70
2022/05/31 09:52:05;;;;;;;8.70;5.38;;;20.50;99.90;;;20.82;40.33;101135.84;4843917;29;20069;-69
2022/05/31 09:57:45;;;;;;;7.07;4.80;;;20.40;99.90;;;20.46;38.66;101135.56;4814483;29;20068;-69
2022/05/31 10:01:02;;;;;;;9.52;5.65;;;20.20;99.90;;;19.50;39.42;101107.97;4793593;29;20055;-68
2022/05/31 10:03:37;;;;;;;8.20;5.10;;;19.50;99.90;;;19.85;39.85;101142.44;4842469;29;20088;-68
2022/05/31 10:06:19;;;;;;;10.13;4.35;;;19.50;99.90;;;19.96;40.20;101134.84;4843464;29;20049;-68
2022/05/31 10:08:51;;;;;;;16.63;6.05;;;19.60;99.90;;;19.89;40.14;101108.28;4843251;29;20050;-68
2022/05/31 10:11:34;;;;;;;6.38;4.68;;;19.70;99.90;;;20.06;38.78;101133.53;4843411;29;20054;-68
2022/05/31 10:14:07;;;;;;;7.05;5.50;;;19.70;99.90;;;20.18;41.34;101129.50;4843390;29;20107;-69
2022/05/31 10:16:38;;;;;;;10.95;5.75;;;19.90;99.90;;;20.01;40.31;101099.75;4843516;29;20136;-69
2022/05/31 10:19:09;;;;;;;8.50;5.05;;;19.80;99.90;;;20.14;39.83;101127.88;4843213;29;20499;-67
2022/05/31 10:21:40;;;;;;;4.97;4.43;;;19.90;99.90;;;20.14;39.34;101123.38;4843649;29;20046;-69
2022/05/31 10:24:17;;;;;;;5.55;4.57;;;19.90;99.90;;;20.22;37.77;101124.00;4827022;29;20072;-69
2022/05/31 10:27:10;;;;;;;6.10;4.70;;;19.90;99.90;;;20.10;38.35;101126.25;4843007;29;20076;-69
2022/05/31 10:29:59;;;;;;;5.15;4.60;;;19.80;99.90;;;19.87;38.28;101119.09;4843170;29;20050;-69
2022/05/31 10:32:56;;;;;;;8.82;4.55;;;19.60;99.90;;;19.58;37.83;101122.00;4842943;29;20066;-70
2022/05/31 10:35:29;;;;;;;6.05;4.82;;;19.20;99.90;;;19.95;38.69;101117.00;4843131;29;20050;-68
2022/05/31 10:38:05;;;;;;;8.02;5.15;;;19.50;99.90;;;20.02;38.87;101094.31;4843228;29;20475;-68
2022/05/31 10:40:44;;;;;;;7.15;4.82;;;19.80;99.90;;;19.77;38.39;101115.00;4842905;29;20054;-69
2022/05/31 10:43:39;;;;;;;8.90;4.65;;;19.60;99.90;;;20.06;40.26;101113.88;4841098;29;20368;-69
2022/05/31 10:46:26;;;;;;;11.60;6.63;;;19.60;99.90;;;19.51;39.41;101099.03;4838281;29;20062;-70
2022/05/31 10:48:58;;;;;;;8.00;5.47;;;19.20;99.90;;;19.81;40.57;101097.84;4842725;29;20408;-69
2022/05/31 10:51:41;;;;;;;10.85;5.78;;;19.40;99.90;;;20.17;40.11;101106.28;4842833;29;20118;-68
2022/05/31 10:54:44;;;;;;;8.93;6.05;;;19.70;99.90;;;20.35;40.34;101110.91;4842744;29;20458;-68
2022/05/31 10:57:29;;;;;;;12.23;5.25;;;19.90;99.90;;;20.34;40.76;101082.31;4841247;29;20573;-68
2022/05/31 11:00:08;;;;;;;8.88;5.38;;;20.20;99.90;;;20.13;41.06;101083.16;4842290;29;20062;-68
2022/05/31 11:03:13;;;;;;;10.80;6.00;;;20.10;99.90;;;20.07;40.11;101104.88;4842105;29;20054;-68
2022/05/31 11:05:53;;;;;;;8.85;6.40;;;19.90;99.90;;;20.36;38.46;101120.75;4842212;29;20390;-69